Time;durP1;ratioP1;P1;durP2;ratioP2;P2;SDS_P1;SDS_P2;PMS_P1;PMS_P2;Temp;Humidity;BMP_temperature;BMP_pressure;BME280_temperature;BME280_humidity;BME280_pressure;Samples;Min_cycle;Max_cycle;Signal;HPM_P1;HPM_P2
2020/12/18 00:01:29;;;;;;;32.57;16.33;;;1.80;99.90;;;;;;5092805;28;20464;-52
2020/12/18 00:03:56;;;;;;;40.63;17.40;;;1.80;99.90;;;;;;5092994;28;20464;-52
2020/12/18 00:06:24;;;;;;;40.20;14.90;;;1.80;99.90;;;;;;5092608;28;20473;-53
2020/12/18 00:08:52;;;;;;;35.60;16.50;;;1.70;99.90;;;;;;5092178;28;20495;-52
2020/12/18 00:11:23;;;;;;;48.20;16.77;;;1.80;99.90;;;;;;5090932;28;20877;-52
2020/12/18 00:13:49;;;;;;;48.70;17.20;;;1.90;99.90;;;;;;5092533;28;21111;-52
2020/12/18 00:16:16;;;;;;;36.50;15.70;;;1.90;99.90;;;;;;5090407;28;20484;-52
2020/12/18 00:18:42;;;;;;;39.13;15.63;;;1.80;99.90;;;;;;5108730;28;20456;-52
2020/12/18 00:21:09;;;;;;;39.37;16.70;;;1.80;99.90;;;;;;5112881;28;20471;-52
2020/12/18 00:23:36;;;;;;;46.13;17.00;;;1.70;99.90;;;;;;5096531;28;20453;-52
2020/12/18 00:26:03;;;;;;;43.30;15.97;;;1.60;99.90;;;;;;5092339;28;20456;-52
2020/12/18 00:28:29;;;;;;;27.67;15.03;;;1.60;99.90;;;;;;5092240;28;20435;-52
2020/12/18 00:30:56;;;;;;;31.37;14.53;;;1.70;99.90;;;;;;5091907;28;20450;-52
2020/12/18 00:33:23;;;;;;;35.50;14.87;;;1.90;99.90;;;;;;5077149;28;20504;-52
2020/12/18 00:35:50;;;;;;;29.87;14.13;;;1.80;99.90;;;;;;5112124;28;21034;-52
2020/12/18 00:38:16;;;;;;;34.40;15.63;;;1.90;99.90;;;;;;5095743;28;20465;-52
2020/12/18 00:40:45;;;;;;;26.60;14.73;;;1.90;99.90;;;;;;5091436;28;20449;-52
2020/12/18 00:43:12;;;;;;;25.80;14.67;;;1.90;99.90;;;;;;5091931;28;20578;-52
2020/12/18 00:45:39;;;;;;;28.37;14.50;;;2.00;99.90;;;;;;5091841;28;21019;-52
2020/12/18 00:48:05;;;;;;;35.40;14.73;;;2.00;99.90;;;;;;5091853;28;20498;-51
2020/12/18 00:50:33;;;;;;;35.60;15.93;;;1.90;99.90;;;;;;5091291;28;20442;-51
2020/12/18 00:53:00;;;;;;;32.40;14.50;;;1.60;99.90;;;;;;5091559;28;20445;-52
2020/12/18 00:55:26;;;;;;;35.17;16.60;;;1.60;99.90;;;;;;5091763;28;20449;-52
2020/12/18 00:57:52;;;;;;;32.87;16.03;;;1.70;99.90;;;;;;5091555;28;20896;-52
2020/12/18 01:00:20;;;;;;;36.93;14.70;;;1.60;99.90;;;;;;5091696;28;20491;-52
2020/12/18 01:02:47;;;;;;;30.17;15.60;;;1.80;99.90;;;;;;5091703;28;20538;-52
2020/12/18 01:05:13;;;;;;;35.83;15.13;;;1.90;99.90;;;;;;5095061;28;20454;-51
2020/12/18 01:07:40;;;;;;;29.23;15.10;;;2.00;99.90;;;;;;5091393;28;20470;-52
2020/12/18 01:10:07;;;;;;;36.57;15.87;;;2.00;99.90;;;;;;5091319;28;20431;-52
2020/12/18 01:12:33;;;;;;;39.13;15.87;;;2.00;99.90;;;;;;5091296;28;20417;-52
2020/12/18 01:15:00;;;;;;;30.23;14.80;;;1.90;99.90;;;;;;5091312;28;20797;-52
2020/12/18 01:17:27;;;;;;;24.50;14.30;;;2.00;99.90;;;;;;5091379;28;20489;-52
2020/12/18 01:19:53;;;;;;;27.30;13.53;;;1.90;99.90;;;;;;5100577;28;20428;-52
2020/12/18 01:22:20;;;;;;;23.50;12.93;;;1.90;99.90;;;;;;5091417;28;20831;-52
2020/12/18 01:24:46;;;;;;;27.63;13.10;;;1.80;99.90;;;;;;5091339;28;20491;-52
2020/12/18 01:27:13;;;;;;;22.30;11.43;;;1.90;99.90;;;;;;5074524;28;20487;-53
2020/12/18 01:29:39;;;;;;;28.53;13.43;;;1.90;99.90;;;;;;5070936;28;20529;-53
2020/12/18 01:32:06;;;;;;;25.03;12.80;;;1.90;99.90;;;;;;5070883;28;20455;-52
2020/12/18 01:34:33;;;;;;;23.03;12.30;;;1.90;99.90;;;;;;5086563;28;20450;-52
2020/12/18 01:37:00;;;;;;;28.23;13.37;;;2.00;99.90;;;;;;5090477;28;20493;-52
2020/12/18 01:39:26;;;;;;;21.53;11.80;;;2.00;99.90;;;;;;5090530;28;20448;-52
2020/12/18 01:41:53;;;;;;;21.93;12.63;;;2.00;99.90;;;;;;5090862;28;20446;-52
2020/12/18 01:44:19;;;;;;;23.13;12.47;;;2.00;99.90;;;;;;5091000;28;20465;-52
2020/12/18 01:46:46;;;;;;;23.73;12.77;;;2.10;99.90;;;;;;5089196;28;20462;-52
2020/12/18 01:49:13;;;;;;;24.23;13.20;;;2.20;99.90;;;;;;5090352;28;20502;-52
2020/12/18 01:51:40;;;;;;;21.27;12.73;;;2.20;99.90;;;;;;5090940;28;20460;-52
2020/12/18 01:54:07;;;;;;;36.47;13.20;;;2.20;99.90;;;;;;5089799;28;20446;-52
2020/12/18 01:56:34;;;;;;;27.90;13.10;;;2.10;99.90;;;;;;5090513;28;20485;-52
2020/12/18 01:59:02;;;;;;;36.60;13.60;;;2.10;99.90;;;;;;5090527;28;20449;-52
2020/12/18 02:01:29;;;;;;;25.40;12.17;;;2.20;99.90;;;;;;5090299;28;20969;-52
2020/12/18 02:03:56;;;;;;;22.70;13.07;;;2.20;99.90;;;;;;5092463;28;20478;-52
2020/12/18 02:06:26;;;;;;;22.33;12.70;;;2.00;99.90;;;;;;5110916;28;20475;-52
2020/12/18 02:08:54;;;;;;;23.80;12.93;;;2.10;99.90;;;;;;5089315;28;20458;-52
2020/12/18 02:11:21;;;;;;;28.90;12.90;;;2.10;99.90;;;;;;5090782;28;20450;-53
2020/12/18 02:13:49;;;;;;;25.90;13.83;;;2.10;99.90;;;;;;5090714;28;20449;-53
2020/12/18 02:16:16;;;;;;;26.83;12.93;;;2.10;99.90;;;;;;5090954;28;20896;-52
2020/12/18 02:18:43;;;;;;;29.60;14.30;;;2.20;99.90;;;;;;5090290;28;20511;-52
2020/12/18 02:21:10;;;;;;;29.53;12.93;;;2.20;99.90;;;;;;5090502;28;20446;-52
2020/12/18 02:23:39;;;;;;;23.57;13.23;;;2.20;99.90;;;;;;5090871;28;20457;-52
2020/12/18 02:26:08;;;;;;;31.83;13.47;;;2.20;99.90;;;;;;5090103;28;21004;-52
2020/12/18 02:28:37;;;;;;;23.70;11.77;;;2.10;99.90;;;;;;5089508;28;20446;-52
2020/12/18 02:31:04;;;;;;;25.80;13.00;;;2.10;99.90;;;;;;5089938;28;20908;-52
2020/12/18 02:33:31;;;;;;;26.50;12.60;;;2.10;99.90;;;;;;5090158;28;20457;-52
2020/12/18 02:35:58;;;;;;;30.00;12.60;;;2.00;99.90;;;;;;5089733;28;20481;-52
2020/12/18 02:38:25;;;;;;;23.33;13.17;;;1.90;99.90;;;;;;5090277;28;20468;-53
2020/12/18 02:40:52;;;;;;;33.73;13.90;;;1.90;99.90;;;;;;5090106;28;20472;-52
2020/12/18 02:43:20;;;;;;;26.67;13.80;;;1.80;99.90;;;;;;5093028;28;20453;-53
2020/12/18 02:45:46;;;;;;;27.50;13.77;;;1.70;99.90;;;;;;5093520;28;20441;-52
2020/12/18 02:48:13;;;;;;;35.17;14.10;;;1.80;99.90;;;;;;5069755;28;20528;-53
2020/12/18 02:50:39;;;;;;;25.27;13.40;;;1.70;99.90;;;;;;5075416;28;20525;-52
2020/12/18 02:53:13;;;;;;;23.63;13.10;;;1.70;99.90;;;;;;5090128;28;20452;-52
2020/12/18 03:02:24;;;;;;;26.90;12.77;;;1.60;99.90;;;;;;5088646;28;20460;-52
2020/12/18 03:04:51;;;;;;;27.30;12.87;;;1.40;99.90;;;;;;5082789;28;20441;-52
2020/12/18 03:07:17;;;;;;;27.27;13.43;;;1.30;99.90;;;;;;5091779;28;20468;-52
2020/12/18 03:09:44;;;;;;;24.60;12.60;;;1.40;99.90;;;;;;5091959;28;20449;-52
2020/12/18 03:12:10;;;;;;;21.50;12.37;;;1.60;99.90;;;;;;5088795;28;20447;-53
2020/12/18 03:14:37;;;;;;;29.90;13.87;;;1.60;99.90;;;;;;5091741;28;20822;-52
2020/12/18 03:17:03;;;;;;;26.83;13.27;;;1.60;99.90;;;;;;5112136;28;20484;-52
2020/12/18 03:19:31;;;;;;;36.03;14.30;;;1.50;99.90;;;;;;5111946;28;20449;-52
2020/12/18 03:21:57;;;;;;;26.90;13.40;;;1.50;99.90;;;;;;5099403;28;20457;-51
2020/12/18 03:24:24;;;;;;;23.83;13.03;;;1.50;99.90;;;;;;5097145;28;20453;-52
2020/12/18 03:26:50;;;;;;;24.77;12.80;;;1.50;99.90;;;;;;5093605;28;20994;-52
2020/12/18 03:29:17;;;;;;;29.00;13.97;;;1.50;99.90;;;;;;5093580;28;20428;-52
2020/12/18 03:31:43;;;;;;;24.63;13.77;;;1.70;99.90;;;;;;5093756;28;20448;-52
2020/12/18 03:34:10;;;;;;;22.10;11.90;;;1.40;99.90;;;;;;5092173;28;20453;-52
2020/12/18 03:36:37;;;;;;;20.77;11.80;;;1.50;99.90;;;;;;5093323;28;20550;-52
2020/12/18 03:39:07;;;;;;;20.17;11.77;;;1.50;99.90;;;;;;5093189;28;20891;-52
2020/12/18 03:41:34;;;;;;;21.47;12.60;;;1.40;99.90;;;;;;5093331;28;20485;-52
2020/12/18 03:44:01;;;;;;;19.30;11.67;;;1.40;99.90;;;;;;5109314;28;20448;-52
2020/12/18 03:46:27;;;;;;;20.70;12.57;;;1.50;99.90;;;;;;5113408;28;20464;-52
2020/12/18 04:06:28;;;;;;;16.50;10.87;;;1.50;99.90;;;;;;5109243;28;20461;-52
2020/12/18 04:08:58;;;;;;;19.47;11.57;;;1.30;99.90;;;;;;5105630;28;20456;-52
2020/12/18 04:11:24;;;;;;;16.67;11.67;;;1.30;99.90;;;;;;5103616;28;20529;-52
2020/12/18 04:13:51;;;;;;;22.40;11.57;;;1.10;99.90;;;;;;5109046;28;20457;-51
2020/12/18 04:16:17;;;;;;;20.90;11.83;;;0.90;99.90;;;;;;5091017;28;20480;-52
2020/12/18 04:18:44;;;;;;;20.20;11.40;;;1.00;99.90;;;;;;5096988;28;20449;-52
2020/12/18 04:21:10;;;;;;;21.63;12.33;;;1.10;99.90;;;;;;5112927;28;20448;-51
2020/12/18 04:23:38;;;;;;;19.27;10.83;;;0.90;99.90;;;;;;5109373;28;20493;-51
2020/12/18 04:26:05;;;;;;;20.73;11.87;;;1.00;99.90;;;;;;5091427;28;20456;-52
2020/12/18 04:28:31;;;;;;;19.53;10.23;;;1.10;99.90;;;;;;5095127;28;20470;-52
2020/12/18 04:30:59;;;;;;;17.37;10.90;;;1.10;99.90;;;;;;5094243;28;20452;-52
2020/12/18 04:33:25;;;;;;;21.80;11.70;;;1.00;99.90;;;;;;5092742;28;20542;-52
2020/12/18 04:35:52;;;;;;;18.33;10.97;;;1.10;99.90;;;;;;5091838;28;20481;-52
2020/12/18 04:38:19;;;;;;;16.23;10.40;;;1.10;99.90;;;;;;5079023;28;20553;-52
2020/12/18 04:40:45;;;;;;;16.40;10.70;;;1.00;99.90;;;;;;5112568;28;20474;-52
2020/12/18 04:43:13;;;;;;;21.00;11.73;;;1.10;99.90;;;;;;5112981;28;20452;-52
2020/12/18 04:45:39;;;;;;;21.20;11.97;;;1.00;99.90;;;;;;5112934;28;20448;-52
2020/12/18 04:48:08;;;;;;;20.03;11.27;;;0.90;99.90;;;;;;5112626;28;20464;-52
2020/12/18 04:50:34;;;;;;;25.40;13.50;;;0.80;99.90;;;;;;5091306;28;20442;-52
2020/12/18 04:53:01;;;;;;;30.63;15.73;;;0.80;99.90;;;;;;5092267;28;20943;-53
2020/12/18 04:55:29;;;;;;;30.73;14.20;;;0.70;99.90;;;;;;5092110;28;20527;-52
2020/12/18 04:57:57;;;;;;;24.13;11.67;;;0.60;99.90;;;;;;5092118;28;20548;-53
2020/12/18 05:00:25;;;;;;;20.80;11.60;;;0.80;99.90;;;;;;5092213;28;20457;-52
2020/12/18 05:02:52;;;;;;;20.03;10.80;;;0.80;99.90;;;;;;5092139;28;20445;-53
2020/12/18 05:05:20;;;;;;;23.13;10.80;;;1.00;99.90;;;;;;5091886;28;20449;-52
2020/12/18 05:07:46;;;;;;;15.73;9.47;;;1.00;99.90;;;;;;5091904;28;20465;-52
2020/12/18 05:10:13;;;;;;;16.07;9.67;;;1.20;99.90;;;;;;5091009;28;20450;-52
2020/12/18 05:12:39;;;;;;;17.60;10.60;;;1.10;99.90;;;;;;5091958;28;20454;-53
2020/12/18 05:15:06;;;;;;;19.90;12.03;;;0.80;99.90;;;;;;5091653;28;20850;-52
2020/12/18 05:17:34;;;;;;;20.50;11.23;;;0.70;99.90;;;;;;5091754;28;20495;-53
2020/12/18 05:20:01;;;;;;;17.53;10.83;;;0.80;99.90;;;;;;5091643;28;20933;-53
2020/12/18 05:22:28;;;;;;;19.80;11.67;;;0.90;99.90;;;;;;5091557;28;20481;-53
2020/12/18 05:24:54;;;;;;;18.63;11.23;;;1.00;99.90;;;;;;5091952;28;20454;-53
2020/12/18 05:27:22;;;;;;;28.50;12.93;;;1.00;99.90;;;;;;5093065;22;20503;-49
2020/12/18 05:29:49;;;;;;;32.50;15.87;;;0.90;99.90;;;;;;5036473;28;20456;-49
2020/12/18 05:32:16;;;;;;;26.47;12.47;;;0.90;99.90;;;;;;5030818;28;20463;-50
2020/12/18 05:34:44;;;;;;;19.40;12.20;;;0.70;99.90;;;;;;5031222;28;20463;-50
2020/12/18 05:37:12;;;;;;;21.10;11.50;;;0.70;99.90;;;;;;5030577;28;20470;-50
2020/12/18 05:39:40;;;;;;;19.60;11.70;;;0.90;99.90;;;;;;5031285;28;20510;-50
2020/12/18 05:42:07;;;;;;;23.87;13.00;;;0.90;99.90;;;;;;5031335;28;20456;-50
2020/12/18 05:44:33;;;;;;;19.00;12.90;;;0.90;99.90;;;;;;5030967;28;20451;-50
2020/12/18 05:47:05;;;;;;;22.30;12.73;;;0.80;99.90;;;;;;5030288;28;20469;-50
2020/12/18 05:49:33;;;;;;;23.37;12.43;;;0.90;99.90;;;;;;5020993;28;20449;-50
2020/12/18 05:52:01;;;;;;;24.67;12.77;;;0.90;99.90;;;;;;5014578;28;20481;-50
2020/12/18 05:54:37;;;;;;;22.47;13.47;;;0.90;99.90;;;;;;5023637;28;20975;-50
2020/12/18 05:57:11;;;;;;;24.43;12.23;;;0.90;99.90;;;;;;5029599;28;20495;-50
2020/12/18 05:59:42;;;;;;;19.60;11.67;;;0.90;99.90;;;;;;5013451;28;20453;-50
2020/12/18 06:02:13;;;;;;;18.97;11.50;;;0.90;99.90;;;;;;5018038;28;20488;-50
2020/12/18 06:04:41;;;;;;;19.60;11.60;;;0.90;99.90;;;;;;5019109;28;20855;-50
2020/12/18 06:07:09;;;;;;;18.43;10.87;;;1.00;99.90;;;;;;5027692;28;20547;-49
2020/12/18 06:09:36;;;;;;;17.80;11.57;;;1.00;99.90;;;;;;5029706;28;20452;-50
2020/12/18 06:12:07;;;;;;;18.67;11.70;;;1.00;99.90;;;;;;5013502;28;20453;-49
2020/12/18 06:14:34;;;;;;;24.43;13.40;;;1.20;99.90;;;;;;5010958;28;21093;-49
2020/12/18 06:17:08;;;;;;;25.60;14.63;;;1.10;99.90;;;;;;5030147;28;20496;-50
2020/12/18 06:19:40;;;;;;;26.60;15.73;;;1.00;99.90;;;;;;5030073;28;20449;-49
2020/12/18 06:22:09;;;;;;;27.40;15.00;;;0.90;99.90;;;;;;5026314;28;20448;-49
2020/12/18 06:24:41;;;;;;;36.77;16.13;;;1.00;99.90;;;;;;5030171;28;20448;-49
2020/12/18 06:27:11;;;;;;;24.13;13.93;;;1.00;99.90;;;;;;5029564;28;20468;-49
2020/12/18 06:29:38;;;;;;;28.37;14.17;;;0.90;99.90;;;;;;5024167;28;20487;-50
2020/12/18 06:32:24;;;;;;;31.10;14.80;;;0.90;99.90;;;;;;5021776;28;20456;-50
2020/12/18 06:34:51;;;;;;;34.50;14.80;;;0.90;99.90;;;;;;5012764;28;20500;-49
2020/12/18 06:37:29;;;;;;;32.80;15.60;;;0.90;99.90;;;;;;5013746;28;20573;-50
2020/12/18 06:39:56;;;;;;;26.17;14.73;;;0.90;99.90;;;;;;5031634;28;20455;-50
2020/12/18 06:42:24;;;;;;;23.60;12.80;;;0.90;99.90;;;;;;5034502;28;20448;-49
2020/12/18 06:44:53;;;;;;;21.83;12.53;;;0.80;99.90;;;;;;5034182;28;20453;-50
2020/12/18 06:47:31;;;;;;;22.17;12.90;;;0.90;99.90;;;;;;5033987;28;20460;-50
2020/12/18 06:50:09;;;;;;;17.10;10.70;;;0.90;99.90;;;;;;5032585;28;20823;-50
2020/12/18 06:52:48;;;;;;;20.70;12.67;;;0.80;99.90;;;;;;5034245;28;20456;-50
2020/12/18 06:55:16;;;;;;;25.33;13.30;;;0.90;99.90;;;;;;5018757;28;20939;-50
2020/12/18 06:57:43;;;;;;;28.53;14.90;;;0.90;99.90;;;;;;5034078;28;20541;-50
2020/12/18 07:00:29;;;;;;;23.27;13.40;;;0.90;99.90;;;;;;5034066;28;20814;-49
2020/12/18 07:02:56;;;;;;;26.00;14.90;;;0.80;99.90;;;;;;5034020;28;20877;-50
2020/12/18 07:05:33;;;;;;;35.43;15.33;;;0.70;99.90;;;;;;5031819;28;20449;-50
2020/12/18 07:08:03;;;;;;;22.43;13.10;;;0.60;99.90;;;;;;5029046;28;20964;-50
2020/12/18 07:10:31;;;;;;;24.83;14.00;;;0.70;99.90;;;;;;5032529;28;20443;-50
2020/12/18 07:12:59;;;;;;;23.03;13.00;;;0.70;99.90;;;;;;5032892;28;20421;-50
2020/12/18 07:15:58;;;;;;;24.73;14.00;;;0.70;99.90;;;;;;5014134;28;20470;-50
2020/12/18 07:18:26;;;;;;;24.90;13.20;;;0.80;99.90;;;;;;5014079;28;20465;-50
2020/12/18 07:20:54;;;;;;;22.73;13.67;;;0.90;99.90;;;;;;5014029;28;20468;-50
2020/12/18 07:23:23;;;;;;;37.47;14.80;;;0.90;99.90;;;;;;5014053;28;20495;-49
2020/12/18 07:25:50;;;;;;;33.10;15.37;;;0.90;99.90;;;;;;5014720;28;20449;-49
2020/12/18 07:28:18;;;;;;;25.60;13.00;;;0.70;99.90;;;;;;5014009;28;20491;-50
2020/12/18 07:30:46;;;;;;;21.43;13.30;;;0.70;99.90;;;;;;5013921;28;20419;-50
2020/12/18 07:33:14;;;;;;;36.07;17.50;;;0.90;99.90;;;;;;5014107;28;20456;-50
2020/12/18 07:35:43;;;;;;;43.13;19.90;;;1.10;99.90;;;;;;5014049;28;20451;-50
2020/12/18 07:38:14;;;;;;;39.80;20.03;;;0.90;99.90;;;;;;5024081;28;20495;-50
2020/12/18 07:40:42;;;;;;;40.40;20.97;;;1.00;99.90;;;;;;5031720;28;20448;-49
2020/12/18 07:43:10;;;;;;;39.97;21.80;;;1.00;99.90;;;;;;5029588;28;20882;-49
2020/12/18 07:45:46;;;;;;;43.23;22.37;;;0.90;99.90;;;;;;5014727;28;20492;-49
2020/12/18 07:48:16;;;;;;;36.27;21.00;;;1.00;99.90;;;;;;5012736;28;20443;-50
2020/12/18 07:50:58;;;;;;;43.90;19.20;;;1.00;99.90;;;;;;5024273;28;20444;-49
2020/12/18 07:53:25;;;;;;;31.90;18.37;;;1.00;99.90;;;;;;5027888;28;20547;-50
2020/12/18 07:56:04;;;;;;;28.67;16.47;;;1.00;99.90;;;;;;5031714;28;20938;-50
2020/12/18 07:58:32;;;;;;;42.97;18.80;;;1.10;99.90;;;;;;5031674;28;20464;-49
2020/12/18 08:01:09;;;;;;;38.30;17.47;;;1.10;99.90;;;;;;5031661;28;20415;-49
2020/12/18 08:03:38;;;;;;;31.30;15.87;;;1.10;99.90;;;;;;5031664;28;20444;-49
2020/12/18 08:06:06;;;;;;;31.27;15.80;;;1.20;99.90;;;;;;5030825;28;20835;-50
2020/12/18 08:08:34;;;;;;;45.80;17.07;;;1.30;99.90;;;;;;5030590;28;20480;-50
2020/12/18 08:11:04;;;;;;;31.03;15.70;;;1.30;99.90;;;;;;5030652;28;20445;-49
2020/12/18 08:13:32;;;;;;;33.23;16.80;;;1.30;99.90;;;;;;5030728;28;20448;-49
2020/12/18 08:16:13;;;;;;;50.13;20.37;;;1.40;99.90;;;;;;5031117;28;20447;-49
2020/12/18 08:18:43;;;;;;;36.57;18.77;;;1.40;99.90;;;;;;5030756;28;20464;-49
2020/12/18 08:21:10;;;;;;;41.93;19.00;;;1.50;99.90;;;;;;5012432;28;20481;-49
2020/12/18 08:23:44;;;;;;;37.33;19.40;;;1.40;99.90;;;;;;5012466;28;20441;-50
2020/12/18 08:26:12;;;;;;;42.20;20.00;;;1.40;99.90;;;;;;5017906;28;20434;-49
2020/12/18 08:28:40;;;;;;;45.67;20.80;;;1.30;99.90;;;;;;5011750;28;20980;-49
2020/12/18 08:31:10;;;;;;;42.03;20.23;;;1.40;99.90;;;;;;5031206;28;20449;-49
2020/12/18 08:33:47;;;;;;;50.20;20.90;;;1.60;99.90;;;;;;5031067;28;20448;-49
2020/12/18 08:36:15;;;;;;;38.80;19.93;;;1.70;99.90;;;;;;5030644;28;20454;-49
2020/12/18 08:38:41;;;;;;;34.37;18.80;;;2.00;99.90;;;;;;5030684;28;20529;-49
2020/12/18 08:41:08;;;;;;;34.50;18.53;;;2.40;99.90;;;;;;5030018;28;20452;-48
2020/12/18 08:43:35;;;;;;;40.57;20.00;;;2.80;99.90;;;;;;5030717;28;20440;-48
2020/12/18 08:46:01;;;;;;;31.90;17.00;;;3.00;99.90;;;;;;5030570;28;20831;-48
2020/12/18 08:48:29;;;;;;;29.83;15.43;;;3.20;99.90;;;;;;5030232;28;21190;-48
2020/12/18 08:51:00;;;;;;;33.13;16.00;;;3.30;99.90;;;;;;5029489;28;20479;-48
2020/12/18 08:53:32;;;;;;;30.37;15.53;;;3.50;99.90;;;;;;5028308;28;20445;-48
2020/12/18 08:56:06;;;;;;;27.73;16.07;;;3.50;99.90;;;;;;5030369;28;20452;-48
2020/12/18 08:58:33;;;;;;;26.73;15.20;;;3.50;99.90;;;;;;5013073;28;20465;-48
2020/12/18 09:01:01;;;;;;;27.43;14.67;;;3.70;99.90;;;;;;5020276;28;21002;-48
2020/12/18 09:03:38;;;;;;;24.60;14.17;;;3.90;99.90;;;;;;5020427;28;20467;-48
2020/12/18 09:06:10;;;;;;;22.80;13.83;;;4.10;99.90;;;;;;5022005;28;20465;-49
2020/12/18 09:08:37;;;;;;;21.70;15.27;;;4.30;99.90;;;;;;5026704;28;20433;-48
2020/12/18 09:11:04;;;;;;;19.77;13.20;;;4.50;99.90;;;;;;5029365;28;20900;-48
2020/12/18 09:13:31;;;;;;;21.27;13.03;;;4.50;99.90;;;;;;5026020;28;20578;-48
2020/12/18 09:16:06;;;;;;;20.47;13.43;;;4.60;99.90;;;;;;5021575;28;20442;-49
2020/12/18 09:18:35;;;;;;;21.73;12.87;;;4.80;99.90;;;;;;5010786;28;20472;-48
2020/12/18 09:21:12;;;;;;;18.50;12.80;;;4.90;99.90;;;;;;5011313;28;20450;-48
2020/12/18 09:23:39;;;;;;;21.13;13.37;;;4.80;99.90;;;;;;5027664;28;21075;-49
2020/12/18 09:26:06;;;;;;;20.43;12.83;;;4.50;99.90;;;;;;5016920;28;20465;-49
2020/12/18 09:28:37;;;;;;;16.40;10.37;;;4.80;99.90;;;;;;5010331;28;20503;-49
2020/12/18 09:31:06;;;;;;;18.10;10.13;;;4.80;99.90;;;;;;5018259;28;20481;-49
2020/12/18 09:33:33;;;;;;;17.57;10.97;;;4.60;99.90;;;;;;5025950;28;20472;-49
2020/12/18 09:36:02;;;;;;;16.43;11.13;;;4.70;99.90;;;;;;5029613;28;20449;-49
2020/12/18 09:38:31;;;;;;;18.20;11.90;;;4.60;99.90;;;;;;5029774;28;20851;-49
2020/12/18 09:40:59;;;;;;;17.80;11.00;;;4.60;99.90;;;;;;5031285;28;20448;-49
2020/12/18 09:43:26;;;;;;;16.70;10.60;;;4.40;99.90;;;;;;5030605;28;21025;-49
2020/12/18 09:45:53;;;;;;;19.20;12.57;;;4.50;99.90;;;;;;5030744;28;20502;-49
2020/12/18 09:48:20;;;;;;;22.53;11.97;;;4.70;99.90;;;;;;5030500;28;20464;-49
2020/12/18 09:50:49;;;;;;;16.00;11.83;;;4.30;99.90;;;;;;5030867;28;20444;-49
2020/12/18 09:53:15;;;;;;;20.80;12.50;;;4.40;99.90;;;;;;5030760;28;20448;-49
2020/12/18 09:55:42;;;;;;;19.67;12.47;;;4.40;99.90;;;;;;5031023;28;20451;-49
2020/12/18 09:58:08;;;;;;;21.60;13.23;;;4.60;99.90;;;;;;5030751;28;21201;-49
2020/12/18 10:00:35;;;;;;;20.23;12.73;;;4.70;99.90;;;;;;5029816;28;20506;-49
2020/12/18 10:03:01;;;;;;;22.90;13.90;;;5.00;99.90;;;;;;5030951;28;20451;-49
2020/12/18 10:05:29;;;;;;;28.33;15.60;;;5.40;99.90;;;;;;5030419;28;20989;-49
2020/12/18 10:07:55;;;;;;;27.57;16.93;;;5.70;99.90;;;;;;5030641;28;20464;-49
2020/12/18 10:10:22;;;;;;;25.40;14.40;;;6.00;99.90;;;;;;5030802;28;20497;-49
2020/12/18 10:12:48;;;;;;;28.00;15.83;;;6.20;99.90;;;;;;5030968;28;20449;-49
2020/12/18 10:15:15;;;;;;;28.60;17.37;;;6.40;99.90;;;;;;5029352;28;20452;-49
2020/12/18 10:17:41;;;;;;;31.43;18.20;;;6.80;99.90;;;;;;5030566;28;20485;-49
2020/12/18 10:20:07;;;;;;;25.43;14.60;;;7.00;99.90;;;;;;5030537;28;20441;-49
2020/12/18 10:22:35;;;;;;;22.67;12.97;;;7.50;99.90;;;;;;5030772;28;20448;-49
2020/12/18 10:25:01;;;;;;;22.87;14.40;;;7.80;99.90;;;;;;5031094;28;20449;-49
2020/12/18 10:27:28;;;;;;;26.00;15.90;;;7.80;99.90;;;;;;5030840;28;20483;-49
2020/12/18 10:29:55;;;;;;;31.40;18.90;;;8.00;99.90;;;;;;5030043;28;20451;-49
2020/12/18 10:32:22;;;;;;;20.90;13.30;;;7.90;99.90;;;;;;5030380;28;20480;-49
2020/12/18 10:34:48;;;;;;;27.87;14.20;;;8.00;99.90;;;;;;5030378;28;20458;-49
2020/12/18 10:37:15;;;;;;;21.63;13.10;;;7.70;99.90;;;;;;5030324;28;20503;-49
2020/12/18 10:39:43;;;;;;;23.87;14.00;;;7.30;99.90;;;;;;5030230;28;20531;-49
2020/12/18 10:42:09;;;;;;;22.47;13.60;;;7.20;99.90;;;;;;5030375;28;20950;-49
2020/12/18 10:44:36;;;;;;;27.30;14.70;;;6.90;99.90;;;;;;5030431;28;20497;-49
2020/12/18 10:47:04;;;;;;;25.73;13.80;;;6.60;99.90;;;;;;5029576;28;20538;-49
2020/12/18 10:49:31;;;;;;;25.57;13.70;;;6.20;99.90;;;;;;5030069;28;20704;-49
2020/12/18 10:51:57;;;;;;;25.60;13.73;;;6.40;99.90;;;;;;5030265;28;20455;-49
2020/12/18 10:54:24;;;;;;;22.37;13.80;;;6.50;99.90;;;;;;5028777;28;20471;-49
2020/12/18 10:56:53;;;;;;;27.30;14.43;;;6.40;99.90;;;;;;5030096;28;20914;-49
2020/12/18 10:59:19;;;;;;;26.70;17.05;;;6.50;99.90;;;;;;5026911;28;20945;-49
2020/12/18 11:01:46;;;;;;;26.43;14.63;;;6.20;99.90;;;;;;5029435;28;20205;-49
2020/12/18 11:04:13;;;;;;;26.73;15.80;;;6.50;99.90;;;;;;5028559;28;20535;-49
2020/12/18 11:06:40;;;;;;;24.03;13.77;;;6.30;99.90;;;;;;5029730;28;20583;-49
2020/12/18 11:09:10;;;;;;;23.00;12.83;;;6.50;99.90;;;;;;5020493;28;20499;-49
2020/12/18 11:11:36;;;;;;;28.20;14.13;;;6.80;99.90;;;;;;5010053;28;20947;-49
2020/12/18 11:14:03;;;;;;;24.90;14.20;;;7.00;99.90;;;;;;5015525;28;20450;-49
2020/12/18 11:16:30;;;;;;;22.70;12.93;;;7.10;99.90;;;;;;5024729;28;20458;-49
2020/12/18 11:19:01;;;;;;;24.30;13.43;;;6.70;99.90;;;;;;5029625;28;20501;-49
2020/12/18 11:21:28;;;;;;;23.57;13.70;;;6.60;99.90;;;;;;5029698;28;20545;-49
2020/12/18 11:23:55;;;;;;;25.87;14.53;;;6.70;99.90;;;;;;5029011;28;20452;-49
2020/12/18 11:26:21;;;;;;;27.93;14.63;;;6.80;99.90;;;;;;5032325;28;20452;-49
2020/12/18 11:28:48;;;;;;;31.20;16.13;;;6.80;99.90;;;;;;5086288;22;20502;-53
2020/12/18 11:31:15;;;;;;;35.50;17.03;;;6.90;99.90;;;;;;5065295;28;20444;-53
2020/12/18 11:33:42;;;;;;;23.53;13.97;;;6.90;99.90;;;;;;5072871;28;20832;-53
2020/12/18 11:36:09;;;;;;;25.40;14.60;;;7.00;99.90;;;;;;5073343;28;20442;-52
2020/12/18 11:38:35;;;;;;;28.57;15.57;;;6.90;99.90;;;;;;5072234;28;20478;-54
2020/12/18 11:41:02;;;;;;;31.20;15.90;;;7.00;99.90;;;;;;5072609;28;20994;-53
2020/12/18 11:43:28;;;;;;;27.77;16.77;;;7.00;99.90;;;;;;5072968;28;20443;-53
2020/12/18 11:45:55;;;;;;;28.97;15.77;;;7.10;99.90;;;;;;5072805;28;20447;-53
2020/12/18 11:48:24;;;;;;;30.43;15.13;;;7.10;99.90;;;;;;5072039;28;20978;-53
2020/12/18 11:50:50;;;;;;;26.30;14.80;;;7.10;99.90;;;;;;5072103;28;20516;-53
2020/12/18 11:53:17;;;;;;;32.63;15.20;;;6.80;99.90;;;;;;5071863;28;20947;-53
2020/12/18 11:55:43;;;;;;;32.30;16.03;;;6.90;99.90;;;;;;5072071;28;20449;-53
2020/12/18 11:58:10;;;;;;;29.03;15.17;;;7.10;99.90;;;;;;5071655;28;20493;-52
2020/12/18 12:00:36;;;;;;;33.33;16.70;;;7.00;99.90;;;;;;5071600;28;20514;-53
2020/12/18 12:03:03;;;;;;;31.77;16.23;;;6.50;99.90;;;;;;5070474;28;20459;-54
2020/12/18 12:05:33;;;;;;;28.73;16.33;;;6.30;99.90;;;;;;5068275;28;21022;-53
2020/12/18 12:07:59;;;;;;;31.53;15.90;;;6.40;99.90;;;;;;5052460;28;20498;-53
2020/12/18 12:10:27;;;;;;;35.70;17.47;;;6.40;99.90;;;;;;5065962;28;20448;-52
2020/12/18 12:12:53;;;;;;;31.00;16.23;;;6.40;99.90;;;;;;5070363;28;20447;-53
2020/12/18 12:15:20;;;;;;;33.80;17.90;;;6.70;99.90;;;;;;5069743;28;20444;-53
2020/12/18 12:17:47;;;;;;;30.20;16.10;;;6.60;99.90;;;;;;5054697;28;20483;-53
2020/12/18 12:20:13;;;;;;;36.00;17.63;;;6.40;99.90;;;;;;5051617;28;20451;-52
2020/12/18 12:22:40;;;;;;;34.37;17.80;;;6.10;99.90;;;;;;5051704;28;20440;-52
2020/12/18 12:25:07;;;;;;;37.57;18.60;;;5.90;99.90;;;;;;5051601;28;20467;-52
2020/12/18 12:27:33;;;;;;;36.63;17.87;;;5.90;99.90;;;;;;5051519;28;20478;-53
2020/12/18 12:30:01;;;;;;;37.83;16.50;;;6.10;99.90;;;;;;5051403;28;20442;-52
2020/12/18 12:32:28;;;;;;;30.90;16.47;;;6.10;99.90;;;;;;5067006;28;20451;-53
2020/12/18 12:34:55;;;;;;;36.53;17.80;;;6.10;99.90;;;;;;5070646;28;20472;-53
2020/12/18 12:37:22;;;;;;;31.80;17.23;;;6.20;99.90;;;;;;5068841;28;20509;-53
2020/12/18 12:39:49;;;;;;;28.47;15.57;;;6.20;99.90;;;;;;5070009;28;20932;-52
2020/12/18 12:42:15;;;;;;;31.07;16.10;;;6.20;99.90;;;;;;5070383;28;20475;-53
2020/12/18 12:44:42;;;;;;;38.03;18.23;;;6.30;99.90;;;;;;5070636;28;20820;-52
2020/12/18 12:47:09;;;;;;;36.87;19.37;;;6.20;99.90;;;;;;5059903;28;20480;-53
2020/12/18 12:49:35;;;;;;;41.70;20.27;;;6.30;99.90;;;;;;5051006;28;20447;-53
2020/12/18 12:52:02;;;;;;;32.77;18.23;;;6.10;99.90;;;;;;5051063;28;20450;-53
2020/12/18 12:54:29;;;;;;;39.03;20.33;;;6.10;99.90;;;;;;5050909;28;20444;-53
2020/12/18 12:56:56;;;;;;;34.73;19.40;;;6.00;99.90;;;;;;5054102;28;20472;-52
2020/12/18 12:59:23;;;;;;;35.80;17.77;;;5.90;99.90;;;;;;5050532;28;20446;-53
2020/12/18 13:01:49;;;;;;;36.10;17.50;;;6.10;99.90;;;;;;5050672;28;20963;-52
2020/12/18 13:04:16;;;;;;;32.70;17.37;;;6.10;99.90;;;;;;5050825;28;20454;-52